createdAt,value
2022-09-15T00:00:23.812Z,849.41
2022-09-15T00:01:23.855Z,849.44
2022-09-15T00:02:23.953Z,849.41
2022-09-15T00:03:23.779Z,849.43
2022-09-15T00:04:23.784Z,849.40
2022-09-15T00:05:23.757Z,849.33
2022-09-15T00:06:23.745Z,849.33
2022-09-15T00:07:23.735Z,849.30
2022-09-15T00:08:23.796Z,849.28
2022-09-15T00:09:23.718Z,849.27
2022-09-15T00:10:23.712Z,849.24
2022-09-15T00:11:23.687Z,849.25
2022-09-15T00:12:23.682Z,849.25
2022-09-15T00:13:23.786Z,849.24
2022-09-15T00:14:23.734Z,849.21
2022-09-15T00:15:23.656Z,849.15
2022-09-15T00:16:23.701Z,849.16
2022-09-15T00:17:23.624Z,849.15
2022-09-15T00:18:23.623Z,849.17
2022-09-15T00:19:23.609Z,849.08
2022-09-15T00:20:23.653Z,849.10
2022-09-15T00:21:23.581Z,849.04
2022-09-15T00:22:23.572Z,849.08
2022-09-15T00:23:23.561Z,849.05
2022-09-15T00:24:23.559Z,849.09
2022-09-15T00:25:23.539Z,849.03
2022-09-15T00:26:23.589Z,849.01
2022-09-15T00:27:23.517Z,849.01
2022-09-15T00:28:23.505Z,849.04
2022-09-15T00:29:23.589Z,849.06
2022-09-15T00:30:23.493Z,849.06
2022-09-15T00:31:23.541Z,849.09
2022-09-15T00:32:23.529Z,849.06
2022-09-15T00:33:23.449Z,849.06
2022-09-15T00:34:23.440Z,849.09
2022-09-15T00:35:23.428Z,849.12
2022-09-15T00:36:23.421Z,849.14
2022-09-15T00:37:23.405Z,849.21
2022-09-15T00:38:23.476Z,849.18
2022-09-15T00:39:23.385Z,849.24
2022-09-15T00:40:23.449Z,849.36
2022-09-15T00:41:23.363Z,849.40
2022-09-15T00:42:23.351Z,849.43
2022-09-15T00:43:23.340Z,849.42
2022-09-15T00:44:23.356Z,849.40
2022-09-15T00:45:23.500Z,849.38
2022-09-15T00:46:23.307Z,849.39
2022-09-15T00:47:23.305Z,849.42
2022-09-15T00:48:23.289Z,849.35
2022-09-15T00:49:23.274Z,849.41
2022-09-15T00:50:23.317Z,849.43
2022-09-15T00:51:23.253Z,849.45
2022-09-15T00:52:23.255Z,849.45
2022-09-15T00:53:23.232Z,849.43
2022-09-15T00:54:23.221Z,849.41
2022-09-15T00:55:23.214Z,849.41
2022-09-15T00:56:23.252Z,849.41
2022-09-15T00:57:23.185Z,849.40
2022-09-15T00:58:23.180Z,849.43
2022-09-15T00:59:23.166Z,849.40
2022-09-15T01:00:23.169Z,849.38
2022-09-15T01:01:23.232Z,849.35
2022-09-15T01:02:23.245Z,849.33
2022-09-15T01:03:23.121Z,849.31
2022-09-15T01:04:23.112Z,849.30
2022-09-15T01:05:23.100Z,849.23
2022-09-15T01:06:23.191Z,849.26
2022-09-15T01:07:23.075Z,849.25
2022-09-15T01:08:23.120Z,849.19
2022-09-15T01:09:23.053Z,849.24
2022-09-15T01:10:23.050Z,849.21
2022-09-15T01:11:23.036Z,849.21
2022-09-15T01:12:23.031Z,849.20
2022-09-15T01:13:23.011Z,849.22
2022-09-15T01:14:23.007Z,849.26
2022-09-15T01:15:23.006Z,849.23
2022-09-15T01:16:23.022Z,849.22
2022-09-15T01:17:22.993Z,849.19
2022-09-15T01:18:22.959Z,849.14
2022-09-15T01:19:22.949Z,849.14
2022-09-15T01:20:22.935Z,849.12
2022-09-15T01:21:22.936Z,849.05
2022-09-15T01:22:22.916Z,849.03
2022-09-15T01:23:22.903Z,849.04
2022-09-15T01:24:22.892Z,849.03
2022-09-15T01:25:22.883Z,849.00
2022-09-15T01:26:22.918Z,848.97
2022-09-15T01:27:40.984Z,849.02
2022-09-15T01:28:23.847Z,849.06
2022-09-15T01:29:22.840Z,849.06
2022-09-15T01:30:22.825Z,849.06
2022-09-15T01:31:22.894Z,849.04
2022-09-15T01:32:22.913Z,849.04
2022-09-15T01:33:22.850Z,849.06
2022-09-15T01:34:22.785Z,849.06
2022-09-15T01:35:22.774Z,849.07
2022-09-15T01:36:22.760Z,849.07
2022-09-15T01:37:22.758Z,849.07
2022-09-15T01:38:22.883Z,849.10
2022-09-15T01:39:22.731Z,849.12
2022-09-15T01:40:22.814Z,849.08
2022-09-15T01:41:22.720Z,849.05
2022-09-15T01:42:22.720Z,849.09
2022-09-15T01:43:22.687Z,849.07
2022-09-15T01:44:22.757Z,849.11
2022-09-15T01:45:22.719Z,849.07
2022-09-15T01:46:22.685Z,849.16
2022-09-15T01:47:22.636Z,849.17
2022-09-15T01:48:22.640Z,849.16
2022-09-15T01:49:22.641Z,849.16
2022-09-15T01:50:22.635Z,849.18
2022-09-15T01:51:22.593Z,849.20
2022-09-15T01:52:22.591Z,849.18
2022-09-15T01:53:22.686Z,849.18
2022-09-15T01:54:22.566Z,849.19
2022-09-15T01:55:22.557Z,849.24
2022-09-15T01:56:22.543Z,849.25
2022-09-15T01:57:22.588Z,849.28
2022-09-15T01:58:22.517Z,849.30
2022-09-15T01:59:22.621Z,849.26
2022-09-15T02:00:22.500Z,849.24
2022-09-15T02:01:22.616Z,849.31
2022-09-15T02:02:22.533Z,849.28
2022-09-15T02:03:22.534Z,849.31
2022-09-15T02:04:22.458Z,849.28
2022-09-15T02:05:22.477Z,849.25
2022-09-15T02:06:22.445Z,849.28
2022-09-15T02:07:22.423Z,849.32
2022-09-15T02:08:22.412Z,849.33
2022-09-15T02:09:22.496Z,849.36
2022-09-15T02:10:22.392Z,849.34
2022-09-15T02:11:22.380Z,849.36
2022-09-15T02:12:22.377Z,849.32
2022-09-15T02:13:22.353Z,849.33
2022-09-15T02:14:22.375Z,849.31
2022-09-15T02:15:22.387Z,849.33
2022-09-15T02:16:22.372Z,849.35
2022-09-15T02:17:22.311Z,849.42
2022-09-15T02:18:22.299Z,849.44
2022-09-15T02:19:22.299Z,849.45
2022-09-15T02:20:22.289Z,849.44
2022-09-15T02:21:22.327Z,849.41
2022-09-15T02:22:22.263Z,849.33
2022-09-15T02:23:22.256Z,849.34
2022-09-15T02:24:22.237Z,849.33
2022-09-15T02:25:22.227Z,849.35
2022-09-15T02:26:22.233Z,849.34
2022-09-15T02:27:22.206Z,849.41
2022-09-15T02:28:22.277Z,849.43
2022-09-15T02:29:22.186Z,849.50
2022-09-15T02:30:22.172Z,849.55
2022-09-15T02:31:22.279Z,849.57
2022-09-15T02:32:22.155Z,849.54
2022-09-15T02:33:22.192Z,849.47
2022-09-15T02:34:22.201Z,849.44
2022-09-15T02:35:22.119Z,849.38
2022-09-15T02:36:22.104Z,849.37
2022-09-15T02:37:22.183Z,849.32
2022-09-15T02:38:22.086Z,849.33
2022-09-15T02:39:22.072Z,849.35
2022-09-15T02:40:22.194Z,849.33
2022-09-15T02:41:22.078Z,849.33
2022-09-15T02:42:22.037Z,849.32
2022-09-15T02:43:22.036Z,849.28
2022-09-15T02:44:22.014Z,849.22
2022-09-15T02:45:22.115Z,849.20
2022-09-15T02:46:22.057Z,849.21
2022-09-15T02:47:22.000Z,849.18
2022-09-15T02:48:21.990Z,849.16
2022-09-15T02:49:21.973Z,849.18
2022-09-15T02:50:21.958Z,849.15
2022-09-15T02:51:21.947Z,849.16
2022-09-15T02:52:21.932Z,849.16
2022-09-15T02:53:21.942Z,849.15
2022-09-15T02:54:21.924Z,849.12
2022-09-15T02:55:21.897Z,849.11
2022-09-15T02:56:21.888Z,849.10
2022-09-15T02:57:21.875Z,849.05
2022-09-15T02:58:21.868Z,849.05
2022-09-15T02:59:21.861Z,849.03
2022-09-15T03:00:21.858Z,849.05
2022-09-15T03:01:21.900Z,849.05
2022-09-15T03:02:21.864Z,849.02
2022-09-15T03:03:21.820Z,849.05
2022-09-15T03:04:21.865Z,849.02
2022-09-15T03:05:22.084Z,849.03
2022-09-15T03:06:21.775Z,849.01
2022-09-15T03:07:21.769Z,849.01
2022-09-15T03:08:21.768Z,849.00
2022-09-15T03:09:21.775Z,849.01
2022-09-15T03:10:21.794Z,849.00
2022-09-15T03:11:21.741Z,848.99
2022-09-15T03:12:21.711Z,849.01
2022-09-15T03:13:21.701Z,849.01
2022-09-15T03:14:21.695Z,848.97
2022-09-15T03:15:21.677Z,849.01
2022-09-15T03:16:21.807Z,849.00
2022-09-15T03:17:21.667Z,849.01
2022-09-15T03:18:21.646Z,848.97
2022-09-15T03:19:21.637Z,848.97
2022-09-15T03:20:21.624Z,848.95
2022-09-15T03:21:21.616Z,848.94
2022-09-15T03:22:21.661Z,848.96
2022-09-15T03:23:21.600Z,848.96
2022-09-15T03:24:21.583Z,849.00
2022-09-15T03:25:21.593Z,848.98
2022-09-15T03:26:21.561Z,848.97
2022-09-15T03:27:21.564Z,848.96
2022-09-15T03:28:21.556Z,848.88
2022-09-15T03:29:21.521Z,848.91
2022-09-15T03:30:21.514Z,848.90
2022-09-15T03:31:21.596Z,848.86
2022-09-15T03:32:21.492Z,848.86
2022-09-15T03:33:21.498Z,848.82
2022-09-15T03:34:21.571Z,848.85
2022-09-15T03:35:21.458Z,848.84
2022-09-15T03:36:21.452Z,848.80
2022-09-15T03:37:21.439Z,848.76
2022-09-15T03:38:21.430Z,848.73
2022-09-15T03:39:21.436Z,848.78
2022-09-15T03:40:21.511Z,848.74
2022-09-15T03:41:21.451Z,848.73
2022-09-15T03:42:21.383Z,848.70
2022-09-15T03:43:21.376Z,848.76
2022-09-15T03:44:21.361Z,848.75
2022-09-15T03:45:21.465Z,848.79
2022-09-15T03:46:21.388Z,848.78
2022-09-15T03:47:21.324Z,848.81
2022-09-15T03:48:21.326Z,848.81
2022-09-15T03:49:21.305Z,848.82
2022-09-15T03:50:21.295Z,848.80
2022-09-15T03:51:21.304Z,848.82
2022-09-15T03:52:21.349Z,848.79
2022-09-15T03:53:21.264Z,848.78
2022-09-15T03:54:21.256Z,848.76
2022-09-15T03:55:21.252Z,848.75
2022-09-15T03:56:21.360Z,848.74
2022-09-15T03:57:21.251Z,848.71
2022-09-15T03:58:21.273Z,848.71
2022-09-15T03:59:21.195Z,848.72
2022-09-15T04:00:21.185Z,848.71
2022-09-15T04:01:21.304Z,848.71
2022-09-15T04:02:21.304Z,848.67
2022-09-15T04:03:21.167Z,848.67
2022-09-15T04:04:21.141Z,848.68
2022-09-15T04:05:21.135Z,848.73
2022-09-15T04:06:21.146Z,848.71
2022-09-15T04:07:21.134Z,848.71
2022-09-15T04:08:21.114Z,848.68
2022-09-15T04:09:21.092Z,848.74
2022-09-15T04:10:21.136Z,848.76
2022-09-15T04:11:21.069Z,848.80
2022-09-15T04:12:21.063Z,848.78
2022-09-15T04:13:23.418Z,848.80
2022-09-15T04:14:21.031Z,848.80
2022-09-15T04:15:21.023Z,848.77
2022-09-15T04:16:21.142Z,848.75
2022-09-15T04:17:21.004Z,848.77
2022-09-15T04:18:20.990Z,848.72
2022-09-15T04:19:20.979Z,848.78
2022-09-15T04:20:20.975Z,848.74
2022-09-15T04:21:21.011Z,848.76
2022-09-15T04:22:20.949Z,848.77
2022-09-15T04:23:20.943Z,848.73
2022-09-15T04:24:20.922Z,848.73
2022-09-15T04:25:20.913Z,848.73
2022-09-15T04:26:20.907Z,848.73
2022-09-15T04:27:20.899Z,848.68
2022-09-15T04:28:20.895Z,848.66
2022-09-15T04:29:20.957Z,848.67
2022-09-15T04:30:20.856Z,848.67
2022-09-15T04:31:20.972Z,848.66
2022-09-15T04:32:20.851Z,848.67
2022-09-15T04:33:20.826Z,848.63
2022-09-15T04:34:20.816Z,848.63
2022-09-15T04:35:20.857Z,848.61
2022-09-15T04:36:20.792Z,848.60
2022-09-15T04:37:20.841Z,848.56
2022-09-15T04:38:20.789Z,848.54
2022-09-15T04:39:20.829Z,848.54
2022-09-15T04:40:20.846Z,848.60
2022-09-15T04:41:20.794Z,848.52
2022-09-15T04:42:20.732Z,848.57
2022-09-15T04:43:20.739Z,848.52
2022-09-15T04:44:20.716Z,848.48
2022-09-15T04:45:20.753Z,848.49
2022-09-15T04:46:20.815Z,848.44
2022-09-15T04:47:20.672Z,848.44
2022-09-15T04:48:20.666Z,848.45
2022-09-15T04:49:20.654Z,848.35
2022-09-15T04:50:20.774Z,848.41
2022-09-15T04:51:20.629Z,848.39
2022-09-15T04:52:20.644Z,848.45
2022-09-15T04:53:20.609Z,848.44
2022-09-15T04:54:20.595Z,848.45
2022-09-15T04:55:20.584Z,848.41
2022-09-15T04:56:20.584Z,848.45
2022-09-15T04:57:20.569Z,848.49
2022-09-15T04:58:20.553Z,848.51
2022-09-15T04:59:20.544Z,848.51
2022-09-15T05:00:20.529Z,848.49
2022-09-15T05:01:20.737Z,848.50
2022-09-15T05:02:20.640Z,848.54
2022-09-15T05:03:20.500Z,848.51
2022-09-15T05:04:20.488Z,848.52
2022-09-15T05:05:20.475Z,848.58
2022-09-15T05:06:20.465Z,848.60
2022-09-15T05:07:20.492Z,848.63
2022-09-15T05:08:20.446Z,848.62
2022-09-15T05:09:20.431Z,848.66
2022-09-15T05:10:20.419Z,848.65
2022-09-15T05:11:20.408Z,848.65
2022-09-15T05:12:20.402Z,848.65
2022-09-15T05:13:20.464Z,848.66
2022-09-15T05:14:20.382Z,848.68
2022-09-15T05:15:20.372Z,848.69
2022-09-15T05:16:20.412Z,848.69
2022-09-15T05:17:23.095Z,848.66
2022-09-15T05:18:20.333Z,848.71
2022-09-15T05:19:20.383Z,848.68
2022-09-15T05:20:20.316Z,848.67
2022-09-15T05:21:20.301Z,848.69
2022-09-15T05:22:20.291Z,848.74
2022-09-15T05:23:20.297Z,848.70
2022-09-15T05:24:20.268Z,848.74
2022-09-15T05:25:20.319Z,848.72
2022-09-15T05:26:20.245Z,848.71
2022-09-15T05:27:20.233Z,848.69
2022-09-15T05:28:20.230Z,848.65
2022-09-15T05:29:20.222Z,848.67
2022-09-15T05:30:39.545Z,848.65
2022-09-15T05:31:21.319Z,848.64
2022-09-15T05:32:20.180Z,848.70
2022-09-15T05:33:20.309Z,848.69
2022-09-15T05:34:20.163Z,848.67
2022-09-15T05:35:20.164Z,848.70
2022-09-15T05:36:20.202Z,848.70
2022-09-15T05:37:20.128Z,848.68
2022-09-15T05:38:20.111Z,848.70
2022-09-15T05:39:20.111Z,848.72
2022-09-15T05:40:20.140Z,848.72
2022-09-15T05:41:20.089Z,848.69
2022-09-15T05:42:20.130Z,848.66
2022-09-15T05:43:20.095Z,848.62
2022-09-15T05:44:20.066Z,848.65
2022-09-15T05:45:20.036Z,848.69
2022-09-15T05:46:20.102Z,848.67
2022-09-15T05:47:20.018Z,848.76
2022-09-15T05:48:20.064Z,848.79
2022-09-15T05:49:20.026Z,848.75
2022-09-15T05:50:20.006Z,848.72
2022-09-15T05:51:19.970Z,848.71
2022-09-15T05:52:19.959Z,848.69
2022-09-15T05:53:19.949Z,848.67
2022-09-15T05:54:20.002Z,848.63
2022-09-15T05:55:19.927Z,848.64
2022-09-15T05:56:19.931Z,848.64
2022-09-15T05:57:19.907Z,848.66
2022-09-15T05:58:19.949Z,848.70
2022-09-15T05:59:19.881Z,848.72
2022-09-15T06:00:19.950Z,848.74
2022-09-15T06:01:19.862Z,848.74
2022-09-15T06:02:19.932Z,848.77
2022-09-15T06:03:19.887Z,848.81
2022-09-15T06:04:19.841Z,848.77
2022-09-15T06:05:19.853Z,848.80
2022-09-15T06:06:19.808Z,848.80
2022-09-15T06:07:19.823Z,848.81
2022-09-15T06:08:19.789Z,848.81
2022-09-15T06:09:19.774Z,848.85
2022-09-15T06:10:19.871Z,848.89
2022-09-15T06:11:19.762Z,848.88
2022-09-15T06:12:19.743Z,848.87
2022-09-15T06:13:19.804Z,848.89
2022-09-15T06:14:19.721Z,848.93
2022-09-15T06:15:19.709Z,848.94
2022-09-15T06:16:19.819Z,848.95
2022-09-15T06:17:19.686Z,848.94
2022-09-15T06:18:19.675Z,849.00
2022-09-15T06:19:19.697Z,848.98
2022-09-15T06:20:19.657Z,848.94
2022-09-15T06:21:19.684Z,848.99
2022-09-15T06:22:19.632Z,849.01
2022-09-15T06:23:19.621Z,849.10
2022-09-15T06:24:19.620Z,849.13
2022-09-15T06:25:19.605Z,849.20
2022-09-15T06:26:19.589Z,849.17
2022-09-15T06:27:19.578Z,849.18
2022-09-15T06:28:19.568Z,849.20
2022-09-15T06:29:19.557Z,849.24
2022-09-15T06:30:19.582Z,849.22
2022-09-15T06:31:19.647Z,849.24
2022-09-15T06:32:19.536Z,849.28
2022-09-15T06:33:19.514Z,849.27
2022-09-15T06:34:19.501Z,849.29
2022-09-15T06:35:19.496Z,849.31
2022-09-15T06:36:19.486Z,849.30
2022-09-15T06:37:19.499Z,849.27
2022-09-15T06:38:19.466Z,849.26
2022-09-15T06:39:19.457Z,849.24
2022-09-15T06:40:19.534Z,849.24
2022-09-15T06:41:19.437Z,849.27
2022-09-15T06:42:19.424Z,849.25
2022-09-15T06:43:19.462Z,849.24
2022-09-15T06:44:19.406Z,849.26
2022-09-15T06:45:19.384Z,849.20
2022-09-15T06:46:19.498Z,849.22
2022-09-15T06:47:19.363Z,849.26
2022-09-15T06:48:24.801Z,849.23
2022-09-15T06:49:20.359Z,849.22
2022-09-15T06:50:19.335Z,849.22
2022-09-15T06:51:19.314Z,849.26
2022-09-15T06:52:19.305Z,849.30
2022-09-15T06:53:19.315Z,849.32
2022-09-15T06:54:19.299Z,849.32
2022-09-15T06:55:19.271Z,849.29
2022-09-15T06:56:19.273Z,849.32
2022-09-15T06:57:19.326Z,849.34
2022-09-15T06:58:19.237Z,849.33
2022-09-15T06:59:19.440Z,849.32
2022-09-15T07:00:19.269Z,849.31
2022-09-15T07:01:19.208Z,849.28
2022-09-15T07:02:19.323Z,849.26
2022-09-15T07:03:19.312Z,849.26
2022-09-15T07:04:19.177Z,849.23
2022-09-15T07:05:19.195Z,849.19
2022-09-15T07:06:19.171Z,849.20
2022-09-15T07:07:19.139Z,849.20
2022-09-15T07:08:19.144Z,849.20
2022-09-15T07:09:19.144Z,849.19
2022-09-15T07:10:19.107Z,849.15
2022-09-15T07:11:19.094Z,849.15
2022-09-15T07:12:19.098Z,849.16
2022-09-15T07:13:19.070Z,849.19
2022-09-15T07:14:19.140Z,849.18
2022-09-15T07:15:19.049Z,849.16
2022-09-15T07:16:19.205Z,849.13
2022-09-15T07:17:19.028Z,849.16
2022-09-15T07:18:19.027Z,849.13
2022-09-15T07:19:19.005Z,849.10
2022-09-15T07:20:19.053Z,849.16
2022-09-15T07:21:18.989Z,849.18
2022-09-15T07:22:18.973Z,849.15
2022-09-15T07:23:18.963Z,849.16
2022-09-15T07:24:18.962Z,849.09
2022-09-15T07:25:18.960Z,849.23
2022-09-15T07:26:18.942Z,849.21
2022-09-15T07:27:18.930Z,849.23
2022-09-15T07:28:18.917Z,849.27
2022-09-15T07:29:18.897Z,849.30
2022-09-15T07:30:18.896Z,849.30
2022-09-15T07:31:18.952Z,849.34
2022-09-15T07:32:18.865Z,849.33
2022-09-15T07:33:18.852Z,849.36
2022-09-15T07:34:18.842Z,849.37
2022-09-15T07:35:18.827Z,849.37
2022-09-15T07:36:18.820Z,849.41
2022-09-15T07:37:18.820Z,849.43
2022-09-15T07:38:18.818Z,849.38
2022-09-15T07:39:18.807Z,849.40
2022-09-15T07:40:18.910Z,849.39
2022-09-15T07:41:18.802Z,849.39
2022-09-15T07:42:18.755Z,849.39
2022-09-15T07:43:18.752Z,849.39
2022-09-15T07:44:18.751Z,849.38
2022-09-15T07:45:18.842Z,849.40
2022-09-15T07:46:18.710Z,849.42
2022-09-15T07:47:18.696Z,849.44
2022-09-15T07:48:21.221Z,849.42
2022-09-15T07:49:18.685Z,849.44
2022-09-15T07:50:18.698Z,849.45
2022-09-15T07:51:18.663Z,849.41
2022-09-15T07:52:18.643Z,849.41
2022-09-15T07:53:18.633Z,849.41
2022-09-15T07:54:22.596Z,849.41
2022-09-15T07:55:18.609Z,849.41
2022-09-15T07:56:18.719Z,849.47
2022-09-15T07:57:18.630Z,849.53
2022-09-15T07:58:18.583Z,849.55
2022-09-15T07:59:18.566Z,849.56
2022-09-15T08:00:18.554Z,849.57
2022-09-15T08:01:18.683Z,849.54
2022-09-15T08:02:18.638Z,849.52
2022-09-15T08:03:18.532Z,849.56
2022-09-15T08:04:18.516Z,849.60
2022-09-15T08:05:18.496Z,849.54
2022-09-15T08:06:18.487Z,849.50
2022-09-15T08:07:18.473Z,849.54
2022-09-15T08:08:18.496Z,849.51
2022-09-15T08:09:18.467Z,849.54
2022-09-15T08:10:18.442Z,849.51
2022-09-15T08:11:19.194Z,849.53
2022-09-15T08:12:18.474Z,849.55
2022-09-15T08:13:18.434Z,849.57
2022-09-15T08:14:18.394Z,849.53
2022-09-15T08:15:18.403Z,849.48
2022-09-15T08:16:18.473Z,849.49
2022-09-15T08:17:18.367Z,849.48
2022-09-15T08:18:18.351Z,849.48
2022-09-15T08:19:18.340Z,849.49
2022-09-15T08:20:18.331Z,849.49
2022-09-15T08:21:18.350Z,849.47
2022-09-15T08:22:18.322Z,849.51
2022-09-15T08:23:18.301Z,849.50
2022-09-15T08:24:18.289Z,849.51
2022-09-15T08:25:18.280Z,849.50
2022-09-15T08:26:18.276Z,849.54
2022-09-15T08:27:18.317Z,849.45
2022-09-15T08:28:18.250Z,849.49
2022-09-15T08:29:18.258Z,849.47
2022-09-15T08:30:18.300Z,849.47
2022-09-15T08:31:18.280Z,849.44
2022-09-15T08:32:18.217Z,849.39
2022-09-15T08:33:18.217Z,849.39
2022-09-15T08:34:18.176Z,849.35
2022-09-15T08:35:18.170Z,849.38
2022-09-15T08:36:18.162Z,849.39
2022-09-15T08:37:18.145Z,849.37
2022-09-15T08:38:18.214Z,849.38
2022-09-15T08:39:18.126Z,849.39
2022-09-15T08:40:18.274Z,849.38
2022-09-15T08:41:18.102Z,849.39
2022-09-15T08:42:18.095Z,849.34
2022-09-15T08:43:18.078Z,849.33
2022-09-15T08:44:18.090Z,849.35
2022-09-15T08:45:18.230Z,849.30
2022-09-15T08:46:18.193Z,849.33
2022-09-15T08:47:18.044Z,849.33
2022-09-15T08:48:18.026Z,849.32
2022-09-15T08:49:30.559Z,849.32
2022-09-15T08:50:19.052Z,849.36
2022-09-15T08:51:17.993Z,849.38
2022-09-15T08:52:17.999Z,849.41
2022-09-15T08:53:17.974Z,849.37
2022-09-15T08:54:18.171Z,849.38
2022-09-15T08:55:17.950Z,849.35
2022-09-15T08:56:17.938Z,849.39
2022-09-15T08:57:17.929Z,849.44
2022-09-15T08:58:17.924Z,849.42
2022-09-15T08:59:17.903Z,849.45
2022-09-15T09:00:17.944Z,849.42
2022-09-15T09:01:17.957Z,849.42
2022-09-15T09:02:17.979Z,849.39
2022-09-15T09:03:18.081Z,849.33
2022-09-15T09:04:18.240Z,849.32
2022-09-15T09:05:17.839Z,849.28
2022-09-15T09:06:17.837Z,849.27
2022-09-15T09:07:17.816Z,849.25
2022-09-15T09:08:17.815Z,849.26
2022-09-15T09:09:17.792Z,849.25
2022-09-15T09:10:17.837Z,849.24
2022-09-15T09:11:17.799Z,849.24
2022-09-15T09:12:17.764Z,849.17
2022-09-15T09:13:17.748Z,849.22
2022-09-15T09:14:17.756Z,849.21
2022-09-15T09:15:17.731Z,849.25
2022-09-15T09:16:17.874Z,849.25
2022-09-15T09:17:17.732Z,849.28
2022-09-15T09:18:17.695Z,849.25
2022-09-15T09:19:17.680Z,849.25
2022-09-15T09:20:17.885Z,849.24
2022-09-15T09:21:17.662Z,849.23
2022-09-15T09:22:17.649Z,849.20
2022-09-15T09:23:17.642Z,849.22
2022-09-15T09:24:17.626Z,849.17
2022-09-15T09:25:27.333Z,849.16
2022-09-15T09:26:18.773Z,849.17
2022-09-15T09:27:17.595Z,849.12
2022-09-15T09:28:17.579Z,849.13
2022-09-15T09:29:17.574Z,849.14
2022-09-15T09:30:17.566Z,849.12
2022-09-15T09:31:17.634Z,849.11
2022-09-15T09:32:21.389Z,849.08
2022-09-15T09:33:17.562Z,849.08
2022-09-15T09:34:17.517Z,848.97
2022-09-15T09:35:17.524Z,848.94
2022-09-15T09:36:17.493Z,848.94
2022-09-15T09:37:17.487Z,848.92
2022-09-15T09:38:17.486Z,848.90
2022-09-15T09:39:17.462Z,848.87
2022-09-15T09:40:17.652Z,848.87
2022-09-15T09:41:17.437Z,848.91
2022-09-15T09:42:17.428Z,848.84
2022-09-15T09:43:17.436Z,848.82
2022-09-15T09:44:17.407Z,848.80
2022-09-15T09:45:17.397Z,848.82
2022-09-15T09:46:17.414Z,848.79
2022-09-15T09:47:17.368Z,848.85
2022-09-15T09:48:17.354Z,848.80
2022-09-15T09:49:17.390Z,848.82
2022-09-15T09:50:17.354Z,848.76
2022-09-15T09:51:17.323Z,848.80
2022-09-15T09:52:21.896Z,848.82
2022-09-15T09:53:17.300Z,848.86
2022-09-15T09:54:17.289Z,848.84
2022-09-15T09:55:17.290Z,848.80
2022-09-15T09:56:17.296Z,848.85
2022-09-15T09:57:17.268Z,848.81
2022-09-15T09:58:17.248Z,848.80
2022-09-15T09:59:17.258Z,848.75
2022-09-15T10:00:17.247Z,848.72
2022-09-15T10:01:17.346Z,848.70
2022-09-15T10:02:17.217Z,848.70
2022-09-15T10:03:17.195Z,848.68
2022-09-15T10:04:17.185Z,848.69
2022-09-15T10:05:17.315Z,848.66
2022-09-15T10:06:17.171Z,848.73
2022-09-15T10:07:17.152Z,848.70
2022-09-15T10:08:17.157Z,848.66
2022-09-15T10:09:17.124Z,848.69
2022-09-15T10:10:17.128Z,848.67
2022-09-15T10:11:17.121Z,848.69
2022-09-15T10:12:17.093Z,848.69
2022-09-15T10:13:17.081Z,848.71
2022-09-15T10:14:17.079Z,848.66
2022-09-15T10:15:17.060Z,848.69
2022-09-15T10:16:17.103Z,848.72
2022-09-15T10:17:17.058Z,848.70
2022-09-15T10:18:17.027Z,848.71
2022-09-15T10:19:17.016Z,848.69
2022-09-15T10:20:17.009Z,848.71
2022-09-15T10:21:17.013Z,848.71
2022-09-15T10:22:16.982Z,848.72
2022-09-15T10:23:17.076Z,848.67
2022-09-15T10:24:18.164Z,848.64
2022-09-15T10:25:16.960Z,848.64
2022-09-15T10:26:16.997Z,848.67
2022-09-15T10:27:16.959Z,848.66
2022-09-15T10:28:16.918Z,848.68
2022-09-15T10:29:16.920Z,848.65
2022-09-15T10:30:16.892Z,848.70
2022-09-15T10:31:16.943Z,848.70
2022-09-15T10:32:16.966Z,848.68
2022-09-15T10:33:16.863Z,848.69
2022-09-15T10:34:16.855Z,848.65
2022-09-15T10:35:16.856Z,848.63
2022-09-15T10:36:16.829Z,848.69
2022-09-15T10:37:16.842Z,848.65
2022-09-15T10:38:16.817Z,848.59
2022-09-15T10:39:16.816Z,848.66
2022-09-15T10:40:16.826Z,848.61
2022-09-15T10:41:16.775Z,848.63
2022-09-15T10:42:16.762Z,848.66
2022-09-15T10:43:16.750Z,848.67
2022-09-15T10:44:16.793Z,848.66
2022-09-15T10:45:16.739Z,848.63
2022-09-15T10:46:16.818Z,848.62
2022-09-15T10:47:16.711Z,848.62
2022-09-15T10:48:16.693Z,848.65
2022-09-15T10:49:16.683Z,848.61
2022-09-15T10:50:16.753Z,848.59
2022-09-15T10:51:16.675Z,848.60
2022-09-15T10:52:16.673Z,848.59
2022-09-15T10:53:16.666Z,848.58
2022-09-15T10:54:16.637Z,848.56
2022-09-15T10:55:16.617Z,848.52
2022-09-15T10:56:16.619Z,848.55
2022-09-15T10:57:16.635Z,848.52
2022-09-15T10:58:16.583Z,848.47
2022-09-15T10:59:16.575Z,848.50
2022-09-15T11:00:16.562Z,848.51
2022-09-15T11:01:16.590Z,848.49
2022-09-15T11:02:16.654Z,848.47
2022-09-15T11:03:16.560Z,848.46
2022-09-15T11:04:16.523Z,848.50
2022-09-15T11:05:20.593Z,848.51
2022-09-15T11:06:17.497Z,848.50
2022-09-15T11:07:16.485Z,848.56
2022-09-15T11:08:16.534Z,848.50
2022-09-15T11:09:16.503Z,848.50
2022-09-15T11:10:16.450Z,848.52
2022-09-15T11:11:16.451Z,848.51
2022-09-15T11:12:16.441Z,848.51
2022-09-15T11:13:16.418Z,848.53
2022-09-15T11:14:16.410Z,848.49
2022-09-15T11:15:16.396Z,848.51
2022-09-15T11:16:16.438Z,848.52
2022-09-15T11:17:16.387Z,848.55
2022-09-15T11:18:16.413Z,848.56
2022-09-15T11:19:16.351Z,848.54
2022-09-15T11:20:16.345Z,848.53
2022-09-15T11:21:16.337Z,848.52
2022-09-15T11:22:16.317Z,848.51
2022-09-15T11:23:16.319Z,848.53
2022-09-15T11:24:16.301Z,848.52
2022-09-15T11:25:16.311Z,848.52
2022-09-15T11:26:16.275Z,848.50
2022-09-15T11:27:16.283Z,848.53
2022-09-15T11:28:16.262Z,848.50
2022-09-15T11:29:16.241Z,848.54
2022-09-15T11:30:16.285Z,848.53
2022-09-15T11:31:16.287Z,848.54
2022-09-15T11:32:16.217Z,848.57
2022-09-15T11:33:16.233Z,848.58
2022-09-15T11:34:16.182Z,848.62
2022-09-15T11:35:16.170Z,848.61
2022-09-15T11:36:16.161Z,848.58
2022-09-15T11:37:16.150Z,848.63
2022-09-15T11:38:16.181Z,848.60
2022-09-15T11:39:16.133Z,848.60
2022-09-15T11:40:16.189Z,848.66
2022-09-15T11:41:16.128Z,848.62
2022-09-15T11:42:16.093Z,848.63
2022-09-15T11:43:16.087Z,848.61
2022-09-15T11:44:17.063Z,848.64
2022-09-15T11:45:16.062Z,848.67
2022-09-15T11:46:16.111Z,848.66
2022-09-15T11:47:16.034Z,848.63
2022-09-15T11:48:16.028Z,848.60
2022-09-15T11:49:16.015Z,848.61
2022-09-15T11:50:16.024Z,848.59
2022-09-15T11:51:15.995Z,848.65
2022-09-15T11:52:15.984Z,848.69
2022-09-15T11:53:15.971Z,848.69
2022-09-15T11:54:15.962Z,848.63
2022-09-15T11:55:15.949Z,848.66
2022-09-15T11:56:16.017Z,848.62
2022-09-15T11:57:15.954Z,848.61
2022-09-15T11:58:21.034Z,848.57
2022-09-15T11:59:16.902Z,848.56
2022-09-15T12:00:15.906Z,848.53
2022-09-15T12:01:15.899Z,848.50
2022-09-15T12:02:15.992Z,848.50
2022-09-15T12:03:15.973Z,848.49
2022-09-15T12:04:15.846Z,848.48
2022-09-15T12:05:15.835Z,848.46
2022-09-15T12:06:15.832Z,848.47
2022-09-15T12:07:15.816Z,848.44
2022-09-15T12:08:15.805Z,848.48
2022-09-15T12:09:15.792Z,848.50
2022-09-15T12:10:15.781Z,848.50
2022-09-15T12:11:15.777Z,848.45
2022-09-15T12:12:15.754Z,848.51
2022-09-15T12:13:15.769Z,848.54
2022-09-15T12:14:15.861Z,848.56
2022-09-15T12:15:15.727Z,848.55
2022-09-15T12:16:15.788Z,848.54
2022-09-15T12:17:15.701Z,848.58
2022-09-15T12:18:34.363Z,848.53
2022-09-15T12:19:16.678Z,848.56
2022-09-15T12:20:15.678Z,848.51
2022-09-15T12:21:15.663Z,848.52
2022-09-15T12:22:15.656Z,848.49
2022-09-15T12:23:15.632Z,848.55
2022-09-15T12:24:15.624Z,848.51
2022-09-15T12:25:15.615Z,848.57
2022-09-15T12:26:15.626Z,848.56
2022-09-15T12:27:15.588Z,848.57
2022-09-15T12:28:15.576Z,848.56